createdAt,value
2022-10-12T00:01:05.854Z,23.40
2022-10-12T00:03:35.775Z,23.80
2022-10-12T00:06:05.438Z,20.90
2022-10-12T00:08:34.307Z,20.77
2022-10-12T00:11:02.770Z,21.90
2022-10-12T00:13:31.231Z,24.30
2022-10-12T00:16:03.607Z,24.60
2022-10-12T00:18:32.009Z,19.97
2022-10-12T00:21:06.796Z,22.00
2022-10-12T00:23:35.845Z,26.13
2022-10-12T00:26:05.225Z,25.33
2022-10-12T00:28:34.101Z,22.33
2022-10-12T00:31:03.005Z,27.73
2022-10-12T00:33:31.415Z,27.27
2022-10-12T00:35:59.826Z,21.97
2022-10-12T00:38:29.597Z,25.47
2022-10-12T00:40:58.032Z,25.97
2022-10-12T00:43:31.758Z,23.17
2022-10-12T00:46:01.328Z,23.43
2022-10-12T00:48:30.006Z,22.33
2022-10-12T00:50:59.827Z,22.70
2022-10-12T00:53:31.980Z,24.03
2022-10-12T00:56:02.826Z,27.17
2022-10-12T00:58:32.256Z,23.90
2022-10-12T01:01:02.368Z,31.13
2022-10-12T01:03:30.977Z,29.67
2022-10-12T01:06:00.284Z,27.13
2022-10-12T01:08:30.279Z,24.80
2022-10-12T01:10:58.909Z,23.20
2022-10-12T01:13:27.568Z,27.17
2022-10-12T01:15:59.324Z,25.80
2022-10-12T01:18:31.886Z,26.90
2022-10-12T01:21:04.394Z,29.20
2022-10-12T01:23:53.871Z,28.40
2022-10-12T01:26:34.778Z,23.10
2022-10-12T01:29:09.237Z,30.63
2022-10-12T01:31:42.734Z,24.87
2022-10-12T01:34:15.196Z,24.93
2022-10-12T01:36:46.596Z,28.30
2022-10-12T01:39:20.121Z,28.63
2022-10-12T01:41:49.393Z,27.93
2022-10-12T01:44:21.706Z,24.93
2022-10-12T01:46:51.754Z,27.83
2022-10-12T01:49:21.276Z,25.40
2022-10-12T01:52:04.559Z,28.20
2022-10-12T01:54:39.552Z,27.10
2022-10-12T01:57:10.449Z,30.47
2022-10-12T01:59:44.873Z,31.27
2022-10-12T02:02:18.483Z,36.83
2022-10-12T02:04:49.101Z,36.67
2022-10-12T02:07:20.320Z,32.17
2022-10-12T02:09:49.224Z,31.27
2022-10-12T02:12:19.541Z,29.80
2022-10-12T02:14:50.685Z,33.70
2022-10-12T02:17:22.256Z,30.43
2022-10-12T02:19:52.599Z,30.23
2022-10-12T02:22:21.278Z,31.60
2022-10-12T02:24:51.394Z,29.87
2022-10-12T02:27:20.363Z,35.03
2022-10-12T02:29:49.719Z,31.03
2022-10-12T02:32:22.295Z,32.90
2022-10-12T02:34:54.175Z,36.40
2022-10-12T02:37:27.391Z,36.17
2022-10-12T02:39:56.689Z,35.97
2022-10-12T02:42:30.265Z,37.67
2022-10-12T02:45:05.542Z,36.60
2022-10-12T02:47:36.892Z,33.47
2022-10-12T02:50:06.545Z,28.17
2022-10-12T02:52:34.971Z,28.30
2022-10-12T02:55:03.454Z,32.00
2022-10-12T02:57:31.866Z,34.57
2022-10-12T03:00:00.419Z,35.20
2022-10-12T03:02:28.837Z,33.93
2022-10-12T03:04:58.643Z,39.97
2022-10-12T03:07:27.219Z,42.57
2022-10-12T03:09:55.679Z,44.63
2022-10-12T03:12:24.108Z,35.77
2022-10-12T03:14:52.534Z,37.27
2022-10-12T03:17:20.911Z,37.73
2022-10-12T03:19:49.298Z,40.67
2022-10-12T03:22:19.021Z,38.50
2022-10-12T03:24:47.444Z,38.47
2022-10-12T03:27:15.825Z,37.57
2022-10-12T03:29:44.236Z,39.83
2022-10-12T03:32:12.669Z,38.57
2022-10-12T03:34:43.664Z,35.80
2022-10-12T03:37:12.122Z,41.93
2022-10-12T03:39:41.959Z,37.37
2022-10-12T03:42:10.679Z,39.07
2022-10-12T03:44:41.628Z,41.53
2022-10-12T03:47:10.032Z,40.30
2022-10-12T03:49:38.456Z,42.30
2022-10-12T03:52:07.103Z,45.13
2022-10-12T03:54:35.549Z,42.40
2022-10-12T03:57:05.426Z,37.47
2022-10-12T03:59:33.881Z,41.63
2022-10-12T04:02:02.327Z,42.27
2022-10-12T04:04:30.764Z,43.90
2022-10-12T04:06:59.184Z,43.33
2022-10-12T04:09:28.645Z,41.57
2022-10-12T04:11:59.440Z,42.80
2022-10-12T04:14:29.268Z,45.20
2022-10-12T04:16:57.778Z,41.77
2022-10-12T04:19:26.198Z,42.27
2022-10-12T04:21:54.597Z,42.17
2022-10-12T04:24:23.057Z,40.93
2022-10-12T04:26:51.514Z,41.73
2022-10-12T04:29:19.986Z,40.57
2022-10-12T04:31:49.771Z,41.07
2022-10-12T04:34:18.265Z,43.53
2022-10-12T04:36:46.660Z,40.50
2022-10-12T04:39:15.294Z,41.07
2022-10-12T04:41:43.782Z,36.03
2022-10-12T04:44:12.349Z,36.50
2022-10-12T04:46:40.862Z,34.87
2022-10-12T04:49:10.656Z,35.97
2022-10-12T04:51:39.085Z,34.57
2022-10-12T04:54:07.648Z,38.77
2022-10-12T04:56:36.057Z,34.73
2022-10-12T04:59:04.504Z,34.43
2022-10-12T05:01:32.957Z,32.97
2022-10-12T05:04:01.576Z,32.70
2022-10-12T05:06:31.340Z,34.10
2022-10-12T05:08:59.757Z,35.10
2022-10-12T05:11:28.178Z,38.47
2022-10-12T05:13:56.591Z,38.63
2022-10-12T05:16:25.029Z,36.23
2022-10-12T05:18:53.816Z,35.77
2022-10-12T05:21:22.231Z,34.20
2022-10-12T05:23:53.345Z,35.43
2022-10-12T05:26:21.946Z,36.27
2022-10-12T05:28:50.520Z,36.67
2022-10-12T05:31:19.032Z,34.50
2022-10-12T05:33:47.471Z,37.20
2022-10-12T05:36:15.952Z,35.40
2022-10-12T05:38:44.443Z,37.23
2022-10-12T05:41:14.614Z,40.87
2022-10-12T05:43:43.081Z,39.77
2022-10-12T05:46:14.494Z,39.40
2022-10-12T05:48:43.137Z,40.00
2022-10-12T05:51:11.570Z,36.40
2022-10-12T05:53:39.963Z,41.43
2022-10-12T05:56:08.609Z,36.07
2022-10-12T05:58:38.477Z,38.30
2022-10-12T06:01:08.153Z,36.90
2022-10-12T06:03:36.651Z,37.83
2022-10-12T06:06:06.480Z,41.60
2022-10-12T06:08:35.201Z,41.87
2022-10-12T06:11:03.788Z,40.80
2022-10-12T06:13:32.246Z,44.63
2022-10-12T06:16:02.238Z,40.33
2022-10-12T06:18:30.680Z,48.73
2022-10-12T06:23:47.606Z,44.13
2022-10-12T06:26:16.374Z,44.20
2022-10-12T06:28:44.932Z,42.70
2022-10-12T06:31:15.205Z,42.93
2022-10-12T06:33:43.694Z,42.17
2022-10-12T06:36:12.126Z,44.83
2022-10-12T06:38:40.535Z,38.90
2022-10-12T06:41:09.025Z,43.20
2022-10-12T06:43:37.408Z,39.20
2022-10-12T06:46:05.860Z,40.73
2022-10-12T06:48:35.642Z,40.00
2022-10-12T06:51:04.183Z,36.77
2022-10-12T06:53:33.081Z,40.30
2022-10-12T06:56:01.517Z,42.63
2022-10-12T06:58:29.908Z,41.57
2022-10-12T07:00:58.353Z,36.47
2022-10-12T07:03:26.846Z,37.33
2022-10-12T07:05:56.714Z,36.20
2022-10-12T07:08:25.428Z,37.87
2022-10-12T07:11:01.375Z,41.73
2022-10-12T07:13:29.855Z,35.40
2022-10-12T07:15:58.366Z,37.90
2022-10-12T07:18:27.092Z,38.77
2022-10-12T07:20:59.705Z,39.10
2022-10-12T07:23:28.317Z,39.30
2022-10-12T07:25:56.759Z,40.83
2022-10-12T07:28:25.316Z,38.73
2022-10-12T07:30:53.770Z,39.20
2022-10-12T07:33:22.267Z,41.97
2022-10-12T07:36:13.425Z,43.20
2022-10-12T07:38:47.133Z,43.30
2022-10-12T07:41:16.026Z,35.60
2022-10-12T07:43:44.521Z,40.47
2022-10-12T07:46:13.087Z,38.63
2022-10-12T07:48:45.891Z,35.60
2022-10-12T07:51:21.995Z,40.27
2022-10-12T07:53:50.718Z,39.50
2022-10-12T07:56:19.331Z,40.03
2022-10-12T07:58:50.497Z,39.30
2022-10-12T08:01:19.357Z,37.30
2022-10-12T08:03:47.922Z,36.60
2022-10-12T08:06:17.693Z,41.50
2022-10-12T08:08:47.535Z,43.63
2022-10-12T08:11:16.073Z,41.40
2022-10-12T08:13:44.537Z,42.60
2022-10-12T08:16:13.878Z,43.10
2022-10-12T08:18:42.487Z,41.40
2022-10-12T08:21:11.831Z,39.30
2022-10-12T08:23:40.520Z,41.30
2022-10-12T08:26:10.424Z,38.37
2022-10-12T08:28:39.004Z,37.73
2022-10-12T08:31:08.809Z,38.83
2022-10-12T08:33:37.363Z,40.07
2022-10-12T08:36:06.573Z,33.53
2022-10-12T08:38:35.452Z,35.07
2022-10-12T08:41:07.234Z,35.90
2022-10-12T08:43:42.247Z,33.17
2022-10-12T08:46:10.977Z,35.40
2022-10-12T08:48:44.125Z,32.67
2022-10-12T08:51:16.782Z,34.07
2022-10-12T08:53:49.334Z,31.07
2022-10-12T08:56:18.450Z,33.17
2022-10-12T08:58:49.081Z,32.13
2022-10-12T09:01:23.155Z,32.17
2022-10-12T09:03:55.654Z,31.37
2022-10-12T09:06:25.762Z,31.07
2022-10-12T09:09:01.440Z,32.83
2022-10-12T09:11:44.694Z,31.57
2022-10-12T09:14:17.810Z,34.27
2022-10-12T09:16:47.613Z,31.07
2022-10-12T09:19:19.503Z,29.00
2022-10-12T09:21:48.802Z,30.57
2022-10-12T09:24:19.807Z,33.73
2022-10-12T09:26:50.341Z,28.70
2022-10-12T09:29:26.212Z,32.40
2022-10-12T09:32:01.087Z,28.03
2022-10-12T09:34:29.707Z,31.80
2022-10-12T09:36:59.104Z,26.43
2022-10-12T09:39:31.499Z,28.73
2022-10-12T09:41:59.962Z,32.43
2022-10-12T09:44:31.664Z,30.07
2022-10-12T09:47:00.898Z,28.90
2022-10-12T09:49:40.927Z,26.80
2022-10-12T09:52:09.438Z,29.13
2022-10-12T09:54:41.554Z,30.30
2022-10-12T09:57:10.186Z,28.73
2022-10-12T09:59:41.445Z,24.90
2022-10-12T10:02:15.701Z,24.90
2022-10-12T10:04:44.758Z,23.57
2022-10-12T10:07:22.107Z,26.33
2022-10-12T10:10:05.066Z,23.43
2022-10-12T10:12:33.593Z,24.03
2022-10-12T10:15:03.587Z,25.80
2022-10-12T10:17:33.903Z,24.60
2022-10-12T10:20:03.531Z,22.43
2022-10-12T10:22:32.202Z,21.00
2022-10-12T10:25:01.775Z,23.03
2022-10-12T10:27:37.009Z,24.07
2022-10-12T10:30:40.855Z,20.50
2022-10-12T10:33:17.465Z,20.83
2022-10-12T10:35:56.912Z,22.23
2022-10-12T10:38:25.528Z,20.17
2022-10-12T10:40:54.358Z,19.67
2022-10-12T10:43:23.879Z,17.70
2022-10-12T10:45:55.247Z,22.57
2022-10-12T10:48:24.917Z,19.50
2022-10-12T10:50:56.457Z,17.87
2022-10-12T10:53:26.322Z,19.80
2022-10-12T10:55:57.725Z,17.23
2022-10-12T10:58:29.637Z,18.30
2022-10-12T11:01:02.991Z,16.03
2022-10-12T11:03:33.727Z,16.37
2022-10-12T11:06:07.113Z,14.17
2022-10-12T11:08:36.623Z,14.07
2022-10-12T11:11:09.189Z,13.20
2022-10-12T11:13:40.362Z,15.37
2022-10-12T11:16:15.991Z,15.87
2022-10-12T11:18:46.925Z,18.33
2022-10-12T11:21:18.994Z,17.43
2022-10-12T11:23:51.118Z,16.03
2022-10-12T11:26:25.848Z,16.47
2022-10-12T11:28:55.183Z,19.40
2022-10-12T11:31:26.764Z,21.50
2022-10-12T11:33:56.007Z,18.13
2022-10-12T11:36:27.596Z,19.60
2022-10-12T11:38:57.812Z,19.77
2022-10-12T11:41:35.439Z,21.33
2022-10-12T11:44:06.900Z,19.70
2022-10-12T11:46:38.956Z,20.67
2022-10-12T11:49:11.132Z,20.47
2022-10-12T11:51:39.828Z,19.17
2022-10-12T11:54:10.935Z,21.03
2022-10-12T11:56:42.335Z,20.30
2022-10-12T11:59:14.366Z,19.23
2022-10-12T12:01:49.322Z,18.37
2022-10-12T12:04:41.623Z,19.93
2022-10-12T12:07:25.838Z,18.67
2022-10-12T12:09:54.817Z,18.53
2022-10-12T12:12:24.397Z,20.90
2022-10-12T12:15:10.455Z,18.60
2022-10-12T12:17:40.303Z,20.07
2022-10-12T12:20:23.598Z,18.83
2022-10-12T12:22:54.655Z,19.40
2022-10-12T12:25:30.746Z,19.07
2022-10-12T12:28:00.642Z,17.77
2022-10-12T12:30:36.999Z,17.67
2022-10-12T12:33:18.421Z,18.63
2022-10-12T12:35:53.867Z,18.97
2022-10-12T12:38:25.656Z,17.90
2022-10-12T12:41:01.885Z,17.00
2022-10-12T12:43:38.399Z,18.03
2022-10-12T12:46:08.194Z,17.70
2022-10-12T12:48:55.312Z,16.23
2022-10-12T12:51:26.882Z,17.07
2022-10-12T12:53:58.131Z,16.73
2022-10-12T12:56:32.873Z,15.30
2022-10-12T12:59:10.011Z,16.10
2022-10-12T13:02:00.918Z,16.33
2022-10-12T13:04:38.175Z,18.10
2022-10-12T13:07:15.441Z,18.50
2022-10-12T13:09:59.141Z,18.00
2022-10-12T13:12:36.468Z,16.57
2022-10-12T13:15:19.801Z,18.77
2022-10-12T13:17:56.148Z,20.37
2022-10-12T13:20:26.575Z,18.83
2022-10-12T13:22:58.022Z,19.33
2022-10-12T13:25:29.424Z,19.30
2022-10-12T13:27:58.715Z,17.07
2022-10-12T13:30:32.123Z,17.50
2022-10-12T13:33:03.662Z,18.70
2022-10-12T13:35:33.663Z,19.93
2022-10-12T13:38:04.977Z,20.03
2022-10-12T13:40:34.765Z,21.87
2022-10-12T13:43:19.522Z,20.00
2022-10-12T13:45:49.011Z,20.03
2022-10-12T13:48:29.508Z,19.93
2022-10-12T13:51:21.790Z,19.40
2022-10-12T13:53:52.074Z,22.50
2022-10-12T13:56:21.813Z,21.70
2022-10-12T13:58:51.528Z,20.77
2022-10-12T14:01:20.010Z,21.23
2022-10-12T14:03:48.485Z,22.47
2022-10-12T14:06:28.294Z,20.63
2022-10-12T14:08:58.971Z,22.47
2022-10-12T14:11:28.391Z,21.70
2022-10-12T14:13:57.887Z,21.27
2022-10-12T14:16:26.439Z,21.77
2022-10-12T14:18:54.991Z,22.93
2022-10-12T14:21:25.674Z,21.03
2022-10-12T14:23:55.276Z,24.17
2022-10-12T14:26:26.736Z,23.27
2022-10-12T14:28:55.722Z,24.23
2022-10-12T14:31:42.672Z,24.87
2022-10-12T14:34:29.946Z,23.10
2022-10-12T14:37:02.033Z,20.87
2022-10-12T14:39:30.868Z,21.90
2022-10-12T14:42:01.854Z,23.00
2022-10-12T14:44:30.414Z,22.43
2022-10-12T14:47:02.799Z,23.67
2022-10-12T14:49:36.745Z,22.20
2022-10-12T14:52:05.351Z,20.37
2022-10-12T14:54:35.276Z,22.77
2022-10-12T14:57:12.625Z,20.83
2022-10-12T14:59:41.579Z,22.93
2022-10-12T15:02:15.291Z,22.97
2022-10-12T15:04:43.810Z,22.90
2022-10-12T15:07:15.732Z,21.73
2022-10-12T15:09:44.574Z,21.60
2022-10-12T15:12:15.729Z,22.97
2022-10-12T15:14:45.794Z,22.87
2022-10-12T15:17:14.937Z,22.63
2022-10-12T15:19:44.200Z,23.17
2022-10-12T15:22:16.167Z,22.10
2022-10-12T15:24:44.709Z,22.93
2022-10-12T15:27:13.577Z,22.07
2022-10-12T15:29:44.067Z,23.83
2022-10-12T15:32:13.515Z,22.57
2022-10-12T15:34:42.060Z,22.37
2022-10-12T15:37:10.622Z,24.67
2022-10-12T15:39:39.127Z,24.07
2022-10-12T15:42:07.579Z,23.33
2022-10-12T15:44:40.794Z,21.30
2022-10-12T15:47:11.899Z,23.33
2022-10-12T15:49:40.544Z,21.13
2022-10-12T15:52:11.808Z,20.63
2022-10-12T15:54:40.200Z,21.30
2022-10-12T15:57:08.868Z,21.87
2022-10-12T15:59:37.266Z,21.93
2022-10-12T16:02:05.714Z,22.03
2022-10-12T16:04:35.555Z,20.50
2022-10-12T16:07:03.936Z,21.13
2022-10-12T16:09:32.745Z,20.23
2022-10-12T16:12:01.276Z,21.50
2022-10-12T16:14:29.746Z,19.00
2022-10-12T16:17:00.898Z,22.77
2022-10-12T16:19:29.392Z,21.70
2022-10-12T16:22:01.148Z,22.17
2022-10-12T16:24:29.655Z,20.20
2022-10-12T16:26:58.306Z,19.23
2022-10-12T16:29:26.741Z,18.70
2022-10-12T16:31:55.154Z,22.13
2022-10-12T16:34:23.631Z,19.80
2022-10-12T16:36:52.017Z,21.87
2022-10-12T16:39:21.829Z,18.00
2022-10-12T16:41:50.364Z,19.70
2022-10-12T16:44:18.797Z,18.47
2022-10-12T16:46:47.194Z,16.90
2022-10-12T16:49:15.872Z,19.43
2022-10-12T16:51:48.332Z,19.70
2022-10-12T16:54:17.050Z,19.47
2022-10-12T16:56:46.872Z,21.77
2022-10-12T16:59:15.364Z,20.03
2022-10-12T17:01:43.778Z,20.20
2022-10-12T17:04:12.790Z,21.43
2022-10-12T17:06:41.912Z,22.33
2022-10-12T17:09:10.821Z,19.10
2022-10-12T17:11:40.331Z,20.63
2022-10-12T17:14:11.348Z,22.73
2022-10-12T17:16:52.312Z,21.97
2022-10-12T17:19:26.018Z,23.90
2022-10-12T17:21:54.506Z,22.23
2022-10-12T17:24:24.665Z,19.37
2022-10-12T17:26:53.154Z,20.47
2022-10-12T17:29:23.356Z,23.07
2022-10-12T17:31:52.146Z,19.67
2022-10-12T17:34:22.905Z,21.57
2022-10-12T17:36:54.057Z,23.50
2022-10-12T17:39:24.996Z,20.57
2022-10-12T17:41:53.682Z,20.77
2022-10-12T17:44:23.673Z,21.03
2022-10-12T17:46:54.087Z,20.90
2022-10-12T17:49:25.183Z,23.93
2022-10-12T17:51:53.682Z,19.50
2022-10-12T17:54:22.440Z,21.90
2022-10-12T17:56:51.082Z,22.30
2022-10-12T17:59:20.171Z,22.37
2022-10-12T18:01:50.741Z,22.43
2022-10-12T18:04:19.514Z,21.70
2022-10-12T18:06:47.981Z,20.43
2022-10-12T18:09:16.801Z,22.03
2022-10-12T18:11:45.547Z,20.03
2022-10-12T18:14:14.245Z,22.87
2022-10-12T18:16:43.117Z,23.17
2022-10-12T18:19:13.415Z,23.50
2022-10-12T18:21:42.056Z,24.63
2022-10-12T18:24:16.647Z,24.20
2022-10-12T18:26:46.119Z,23.90
2022-10-12T18:29:18.016Z,19.97
2022-10-12T18:31:46.596Z,24.13
2022-10-12T18:34:16.842Z,20.40
2022-10-12T18:36:45.238Z,21.57
2022-10-12T18:39:13.702Z,21.40
2022-10-12T18:41:42.150Z,23.83
2022-10-12T18:44:11.574Z,25.50
2022-10-12T18:46:40.101Z,24.90
2022-10-12T18:49:10.372Z,25.20
2022-10-12T18:51:41.181Z,26.63
2022-10-12T18:54:11.556Z,26.07
2022-10-12T18:56:40.024Z,24.20
2022-10-12T18:59:09.705Z,26.27
2022-10-12T19:01:38.237Z,25.37
2022-10-12T19:04:07.879Z,23.80
2022-10-12T19:06:37.382Z,23.83
2022-10-12T19:09:07.487Z,25.63
2022-10-12T19:11:37.229Z,23.23
2022-10-12T19:14:06.668Z,25.00
2022-10-12T19:16:35.609Z,26.40
2022-10-12T19:19:04.927Z,27.97
2022-10-12T19:21:34.415Z,28.13
2022-10-12T19:24:04.053Z,25.13
2022-10-12T19:26:34.059Z,26.73
2022-10-12T19:29:02.941Z,32.40
2022-10-12T19:31:32.492Z,25.80
2022-10-12T19:34:02.064Z,28.33
2022-10-12T19:36:30.955Z,27.27
2022-10-12T19:39:00.227Z,26.83
2022-10-12T19:41:30.068Z,28.83
2022-10-12T19:44:00.248Z,30.40
2022-10-12T19:46:29.353Z,26.93
2022-10-12T19:48:58.580Z,29.87
2022-10-12T19:51:27.728Z,26.73
2022-10-12T19:53:56.988Z,27.30
2022-10-12T19:56:25.769Z,26.23
2022-10-12T19:58:55.339Z,28.10
2022-10-12T20:01:26.011Z,32.07
2022-10-12T20:03:54.701Z,30.63
2022-10-12T20:06:25.064Z,36.47
2022-10-12T20:08:54.457Z,35.37
2022-10-12T20:11:24.941Z,34.97
2022-10-12T20:13:53.678Z,31.23
2022-10-12T20:16:22.740Z,34.90
2022-10-12T20:18:52.975Z,33.70
2022-10-12T20:21:22.851Z,27.70
2022-10-12T20:23:54.434Z,32.53
2022-10-12T20:26:23.975Z,27.80
2022-10-12T20:28:53.092Z,26.27
2022-10-12T20:31:23.603Z,25.97
2022-10-12T20:33:53.916Z,25.40
2022-10-12T20:36:23.807Z,28.77
2022-10-12T20:38:55.837Z,28.37
2022-10-12T20:41:25.324Z,26.70
2022-10-12T20:43:55.596Z,26.10
2022-10-12T20:46:25.080Z,30.80
2022-10-12T20:48:58.585Z,30.10
2022-10-12T20:51:28.839Z,30.63
2022-10-12T20:53:59.288Z,26.33
2022-10-12T20:56:27.789Z,27.60
2022-10-12T20:58:59.319Z,24.57
2022-10-12T21:01:28.396Z,28.20
2022-10-12T21:03:58.326Z,23.37
2022-10-12T21:06:26.924Z,25.90
2022-10-12T21:08:56.331Z,26.53
2022-10-12T21:11:25.266Z,23.87
2022-10-12T21:13:53.726Z,27.23
2022-10-12T21:16:22.359Z,26.57
2022-10-12T21:18:51.070Z,23.60
2022-10-12T21:21:21.039Z,24.97
2022-10-12T21:23:53.206Z,26.37
2022-10-12T21:26:22.317Z,26.60
2022-10-12T21:28:50.787Z,25.70
2022-10-12T21:31:19.520Z,26.87
2022-10-12T21:33:48.233Z,24.47
2022-10-12T21:36:17.795Z,25.97
2022-10-12T21:38:48.754Z,22.17
2022-10-12T21:41:18.208Z,24.10
2022-10-12T21:43:46.625Z,22.73
2022-10-12T21:46:15.738Z,27.73
2022-10-12T21:48:44.600Z,25.30
2022-10-12T21:51:13.155Z,26.30
2022-10-12T21:53:42.283Z,24.67
2022-10-12T21:56:15.080Z,24.30
2022-10-12T21:58:43.803Z,21.70
2022-10-12T22:01:13.538Z,24.20
2022-10-12T22:03:42.466Z,24.97
2022-10-12T22:06:13.875Z,23.57
2022-10-12T22:08:42.335Z,22.20
2022-10-12T22:11:16.115Z,22.07
2022-10-12T22:13:44.549Z,22.57
2022-10-12T22:16:14.492Z,21.87
2022-10-12T22:18:43.354Z,18.77
2022-10-12T22:21:12.765Z,21.67
2022-10-12T22:23:41.508Z,20.43
2022-10-12T22:26:11.204Z,23.33
2022-10-12T22:28:41.247Z,25.67
2022-10-12T22:31:10.172Z,22.60
2022-10-12T22:33:38.886Z,24.00
2022-10-12T22:36:08.008Z,25.90
2022-10-12T22:38:36.842Z,23.03
2022-10-12T22:41:06.996Z,24.60
2022-10-12T22:43:39.276Z,24.93
2022-10-12T22:46:09.077Z,26.10
2022-10-12T22:48:38.039Z,24.30
2022-10-12T22:51:07.159Z,26.20
2022-10-12T22:53:35.982Z,25.43
2022-10-12T22:56:05.529Z,26.63
2022-10-12T22:58:34.283Z,31.30
2022-10-12T23:01:03.806Z,28.00
2022-10-12T23:03:34.985Z,25.20
2022-10-12T23:06:08.563Z,26.13
2022-10-12T23:08:37.182Z,27.37
2022-10-12T23:11:07.025Z,26.43
2022-10-12T23:13:37.152Z,22.80
2022-10-12T23:16:06.328Z,21.73
2022-10-12T23:18:36.202Z,21.07
2022-10-12T23:21:05.512Z,22.30
2022-10-12T23:23:34.814Z,24.03
2022-10-12T23:26:04.444Z,21.20
2022-10-12T23:28:32.906Z,19.57
2022-10-12T23:31:01.385Z,19.37
2022-10-12T23:33:29.806Z,19.90
2022-10-12T23:36:00.977Z,22.37
2022-10-12T23:38:30.524Z,21.80
2022-10-12T23:40:58.991Z,23.43
2022-10-12T23:43:27.828Z,22.63
2022-10-12T23:45:56.930Z,20.10
2022-10-12T23:48:25.690Z,22.80
2022-10-12T23:50:54.361Z,21.83
2022-10-12T23:53:26.966Z,23.37
2022-10-12T23:55:55.607Z,21.13
2022-10-12T23:58:23.992Z,23.87
